createdAt,value
2022-10-17T00:00:04.355Z,1010.5
2022-10-17T00:01:04.409Z,1010.5
2022-10-17T00:02:04.361Z,1010.6
2022-10-17T00:03:04.361Z,1010.6
2022-10-17T00:04:04.394Z,1010.5
2022-10-17T00:05:04.372Z,1010.6
2022-10-17T00:06:04.365Z,1010.7
2022-10-17T00:07:04.370Z,1010.7
2022-10-17T00:08:04.372Z,1010.7
2022-10-17T00:09:04.373Z,1010.7
2022-10-17T00:10:04.400Z,1010.7
2022-10-17T00:11:04.364Z,1010.7
2022-10-17T00:12:04.360Z,1010.7
2022-10-17T00:13:04.380Z,1010.8
2022-10-17T00:14:04.359Z,1010.8
2022-10-17T00:15:04.444Z,1010.8
2022-10-17T00:16:04.403Z,1010.8
2022-10-17T00:17:04.396Z,1010.8
2022-10-17T00:18:04.378Z,1010.8
2022-10-17T00:19:04.380Z,1010.8
2022-10-17T00:20:04.371Z,1010.8
2022-10-17T00:21:04.443Z,1010.8
2022-10-17T00:23:36.750Z,1010.9
2022-10-17T00:24:04.414Z,1010.9
2022-10-17T00:25:04.403Z,1010.8
2022-10-17T00:26:04.450Z,1010.9
2022-10-17T00:27:04.415Z,1010.8
2022-10-17T00:28:04.414Z,1010.8
2022-10-17T00:29:04.502Z,1010.8
2022-10-17T00:30:04.424Z,1010.8
2022-10-17T00:31:04.432Z,1010.8
2022-10-17T00:32:04.527Z,1010.8
2022-10-17T00:33:04.427Z,1010.8
2022-10-17T00:34:04.425Z,1010.9
2022-10-17T00:35:04.437Z,1010.8
2022-10-17T00:36:04.446Z,1010.9
2022-10-17T00:37:04.429Z,1010.9
2022-10-17T00:38:04.433Z,1010.9
2022-10-17T00:39:04.430Z,1010.9
2022-10-17T00:40:04.421Z,1010.9
2022-10-17T00:41:04.431Z,1011.0
2022-10-17T00:42:04.545Z,1011.0
2022-10-17T00:43:04.425Z,1011.0
2022-10-17T00:44:04.419Z,1011.0
2022-10-17T00:45:04.434Z,1011.0
2022-10-17T00:46:04.461Z,1011.0
2022-10-17T00:47:04.416Z,1011.0
2022-10-17T00:48:04.428Z,1011.1
2022-10-17T00:49:04.431Z,1011.1
2022-10-17T00:50:04.479Z,1011.1
2022-10-17T00:51:04.428Z,1011.0
2022-10-17T00:52:04.466Z,1011.1
2022-10-17T00:53:04.421Z,1011.0
2022-10-17T00:54:04.440Z,1011.1
2022-10-17T00:55:04.424Z,1011.0
2022-10-17T00:56:04.426Z,1011.1
2022-10-17T00:57:04.478Z,1011.1
2022-10-17T00:58:04.460Z,1011.0
2022-10-17T01:00:04.426Z,1011.0
2022-10-17T01:01:04.473Z,1011.1
2022-10-17T01:02:04.432Z,1011.1
2022-10-17T01:03:04.425Z,1011.1
2022-10-17T01:04:04.479Z,1011.1
2022-10-17T01:05:04.424Z,1011.1
2022-10-17T01:06:04.424Z,1011.1
2022-10-17T01:07:04.441Z,1011.0
2022-10-17T01:08:04.428Z,1011.0
2022-10-17T01:09:04.435Z,1011.0
2022-10-17T01:10:04.517Z,1011.0
2022-10-17T01:11:04.428Z,1011.0
2022-10-17T01:12:04.459Z,1011.0
2022-10-17T01:13:04.480Z,1011.0
2022-10-17T01:14:04.431Z,1011.0
2022-10-17T01:15:04.457Z,1011.0
2022-10-17T01:16:04.460Z,1011.0
2022-10-17T01:17:04.428Z,1011.1
2022-10-17T01:18:04.472Z,1011.1
2022-10-17T01:19:04.426Z,1011.1
2022-10-17T01:20:04.471Z,1011.1
2022-10-17T01:21:04.452Z,1011.1
2022-10-17T01:22:04.462Z,1011.1
2022-10-17T01:23:04.434Z,1011.1
2022-10-17T01:24:04.434Z,1011.1
2022-10-17T01:25:04.447Z,1011.1
2022-10-17T01:26:04.432Z,1011.1
2022-10-17T01:27:04.452Z,1011.1
2022-10-17T01:28:04.486Z,1011.1
2022-10-17T01:29:04.450Z,1011.1
2022-10-17T01:30:04.457Z,1011.1
2022-10-17T01:31:04.523Z,1011.0
2022-10-17T01:32:04.452Z,1011.0
2022-10-17T01:33:04.448Z,1011.0
2022-10-17T01:34:04.467Z,1011.0
2022-10-17T01:35:04.433Z,1011.0
2022-10-17T01:36:05.800Z,1011.0
2022-10-17T01:37:04.441Z,1011.0
2022-10-17T01:38:04.447Z,1011.0
2022-10-17T01:39:04.454Z,1011.0
2022-10-17T01:40:04.519Z,1010.9
2022-10-17T01:41:04.443Z,1011.0
2022-10-17T01:42:04.478Z,1011.0
2022-10-17T01:43:32.813Z,1011.0
2022-10-17T01:44:04.486Z,1011.0
2022-10-17T01:45:04.444Z,1011.0
2022-10-17T01:46:04.528Z,1010.9
2022-10-17T01:47:04.439Z,1011.0
2022-10-17T01:48:04.460Z,1010.9
2022-10-17T01:49:04.450Z,1010.9
2022-10-17T01:50:04.454Z,1010.9
2022-10-17T01:51:04.446Z,1010.9
2022-10-17T01:52:04.468Z,1010.9
2022-10-17T01:53:04.442Z,1010.9
2022-10-17T01:54:04.454Z,1010.9
2022-10-17T01:55:04.448Z,1010.9
2022-10-17T01:56:04.475Z,1010.9
2022-10-17T01:57:04.441Z,1010.9
2022-10-17T01:58:04.438Z,1010.9
2022-10-17T01:59:04.449Z,1010.9
2022-10-17T02:00:05.365Z,1010.8
2022-10-17T02:01:04.556Z,1010.8
2022-10-17T02:02:04.495Z,1010.8
2022-10-17T02:03:04.458Z,1010.8
2022-10-17T02:04:04.489Z,1010.8
2022-10-17T02:05:04.464Z,1010.9
2022-10-17T02:06:04.465Z,1010.9
2022-10-17T02:07:04.453Z,1010.9
2022-10-17T02:08:04.485Z,1010.9
2022-10-17T02:09:04.450Z,1010.9
2022-10-17T02:10:04.465Z,1010.9
2022-10-17T02:11:04.439Z,1010.9
2022-10-17T02:12:04.455Z,1010.9
2022-10-17T02:13:05.592Z,1010.8
2022-10-17T02:14:04.538Z,1010.9
2022-10-17T02:15:04.466Z,1010.8
2022-10-17T02:16:04.461Z,1010.9
2022-10-17T02:17:04.452Z,1010.9
2022-10-17T02:18:04.679Z,1010.8
2022-10-17T02:19:04.456Z,1010.8
2022-10-17T02:20:04.488Z,1010.8
2022-10-17T02:21:04.465Z,1010.8
2022-10-17T02:22:04.452Z,1010.8
2022-10-17T02:23:04.447Z,1010.8
2022-10-17T02:24:04.457Z,1010.8
2022-10-17T02:25:04.454Z,1010.8
2022-10-17T02:26:04.489Z,1010.8
2022-10-17T02:27:04.448Z,1010.8
2022-10-17T02:28:04.468Z,1010.8
2022-10-17T02:29:04.526Z,1010.8
2022-10-17T02:30:04.455Z,1010.8
2022-10-17T02:31:04.488Z,1010.8
2022-10-17T02:32:04.496Z,1010.8
2022-10-17T02:33:04.461Z,1010.8
2022-10-17T02:34:04.489Z,1010.8
2022-10-17T02:35:04.468Z,1010.8
2022-10-17T02:36:04.459Z,1010.8
2022-10-17T02:37:04.468Z,1010.8
2022-10-17T02:38:04.500Z,1010.8
2022-10-17T02:39:04.464Z,1010.8
2022-10-17T02:41:40.834Z,1010.9
2022-10-17T02:41:44.786Z,1010.8
2022-10-17T02:42:04.458Z,1010.8
2022-10-17T02:43:04.474Z,1010.8
2022-10-17T02:44:04.532Z,1010.8
2022-10-17T02:45:04.455Z,1010.9
2022-10-17T02:46:04.481Z,1010.9
2022-10-17T02:47:04.458Z,1010.9
2022-10-17T02:48:04.457Z,1010.9
2022-10-17T02:49:04.483Z,1010.9
2022-10-17T02:50:04.485Z,1010.9
2022-10-17T02:51:04.475Z,1011.0
2022-10-17T02:52:04.468Z,1010.9
2022-10-17T02:53:04.589Z,1011.0
2022-10-17T02:54:04.589Z,1011.0
2022-10-17T02:55:04.562Z,1011.0
2022-10-17T02:56:04.652Z,1011.0
2022-10-17T02:57:04.577Z,1011.0
2022-10-17T02:58:04.563Z,1011.0
2022-10-17T02:59:04.605Z,1011.0
2022-10-17T03:00:04.591Z,1011.0
2022-10-17T03:01:04.589Z,1011.0
2022-10-17T03:02:04.513Z,1011.0
2022-10-17T03:03:04.517Z,1011.0
2022-10-17T03:04:04.466Z,1011.0
2022-10-17T03:05:04.487Z,1011.0
2022-10-17T03:06:04.500Z,1011.1
2022-10-17T03:07:04.468Z,1011.1
2022-10-17T03:08:04.465Z,1011.1
2022-10-17T03:09:04.483Z,1011.1
2022-10-17T03:10:04.470Z,1011.1
2022-10-17T03:11:04.493Z,1011.1
2022-10-17T03:12:04.528Z,1011.1
2022-10-17T03:13:04.478Z,1011.1
2022-10-17T03:14:04.481Z,1011.1
2022-10-17T03:15:04.543Z,1011.1
2022-10-17T03:16:04.468Z,1011.1
2022-10-17T03:17:04.479Z,1011.1
2022-10-17T03:18:04.513Z,1011.1
2022-10-17T03:19:04.485Z,1011.1
2022-10-17T03:20:04.471Z,1011.2
2022-10-17T03:21:04.483Z,1011.2
2022-10-17T03:22:05.509Z,1011.2
2022-10-17T03:23:04.479Z,1011.2
2022-10-17T03:24:04.501Z,1011.2
2022-10-17T03:25:04.476Z,1011.2
2022-10-17T03:26:04.496Z,1011.2
2022-10-17T03:27:04.571Z,1011.2
2022-10-17T03:28:04.487Z,1011.2
2022-10-17T03:29:04.684Z,1011.2
2022-10-17T03:30:04.566Z,1011.2
2022-10-17T03:31:04.490Z,1011.2
2022-10-17T03:32:04.506Z,1011.2
2022-10-17T03:33:04.513Z,1011.2
2022-10-17T03:34:04.515Z,1011.2
2022-10-17T03:35:04.487Z,1011.2
2022-10-17T03:36:04.487Z,1011.2
2022-10-17T03:38:42.488Z,1011.2
2022-10-17T03:38:46.539Z,1011.2
2022-10-17T03:39:04.526Z,1011.3
2022-10-17T03:40:04.476Z,1011.2
2022-10-17T03:41:04.474Z,1011.2
2022-10-17T03:42:04.484Z,1011.2
2022-10-17T03:43:04.496Z,1011.2
2022-10-17T03:44:04.507Z,1011.2
2022-10-17T03:45:04.480Z,1011.2
2022-10-17T03:46:04.538Z,1011.2
2022-10-17T03:47:04.515Z,1011.3
2022-10-17T03:48:04.498Z,1011.3
2022-10-17T03:49:04.482Z,1011.2
2022-10-17T03:50:04.566Z,1011.2
2022-10-17T03:51:04.499Z,1011.3
2022-10-17T03:52:04.497Z,1011.3
2022-10-17T03:53:04.526Z,1011.3
2022-10-17T03:54:04.510Z,1011.3
2022-10-17T03:55:04.487Z,1011.3
2022-10-17T03:56:04.568Z,1011.3
2022-10-17T03:57:04.483Z,1011.3
2022-10-17T03:58:04.483Z,1011.3
2022-10-17T03:59:04.499Z,1011.3
2022-10-17T04:00:04.486Z,1011.3
2022-10-17T04:01:04.708Z,1011.4
2022-10-17T04:02:04.561Z,1011.4
2022-10-17T04:03:04.509Z,1011.4
2022-10-17T04:04:04.482Z,1011.4
2022-10-17T04:05:04.491Z,1011.5
2022-10-17T04:06:04.499Z,1011.5
2022-10-17T04:07:04.531Z,1011.5
2022-10-17T04:08:04.983Z,1011.5
2022-10-17T04:09:04.509Z,1011.5
2022-10-17T04:10:04.489Z,1011.5
2022-10-17T04:11:04.483Z,1011.5
2022-10-17T04:12:04.492Z,1011.6
2022-10-17T04:13:04.487Z,1011.6
2022-10-17T04:14:04.507Z,1011.6
2022-10-17T04:15:04.506Z,1011.7
2022-10-17T04:16:04.531Z,1011.6
2022-10-17T04:17:04.514Z,1011.6
2022-10-17T04:19:04.495Z,1011.6
2022-10-17T04:20:04.522Z,1011.6
2022-10-17T04:21:04.505Z,1011.6
2022-10-17T04:22:04.493Z,1011.5
2022-10-17T04:23:04.526Z,1011.6
2022-10-17T04:24:04.503Z,1011.5
2022-10-17T04:25:04.486Z,1011.6
2022-10-17T04:26:04.511Z,1011.6
2022-10-17T04:27:04.489Z,1011.6
2022-10-17T04:28:04.490Z,1011.7
2022-10-17T04:29:04.510Z,1011.6
2022-10-17T04:30:04.500Z,1011.7
2022-10-17T04:31:04.493Z,1011.6
2022-10-17T04:32:04.526Z,1011.6
2022-10-17T04:33:04.508Z,1011.7
2022-10-17T04:34:04.501Z,1011.7
2022-10-17T04:35:04.541Z,1011.7
2022-10-17T04:36:04.534Z,1011.7
2022-10-17T04:37:04.493Z,1011.7
2022-10-17T04:38:04.507Z,1011.7
2022-10-17T04:39:04.531Z,1011.7
2022-10-17T04:40:04.605Z,1011.7
2022-10-17T04:41:04.525Z,1011.7
2022-10-17T04:42:04.629Z,1011.7
2022-10-17T04:43:04.500Z,1011.6
2022-10-17T04:44:04.500Z,1011.6
2022-10-17T04:45:04.500Z,1011.6
2022-10-17T04:46:04.502Z,1011.6
2022-10-17T04:47:04.530Z,1011.6
2022-10-17T04:48:04.533Z,1011.6
2022-10-17T04:49:04.507Z,1011.6
2022-10-17T04:50:04.546Z,1011.6
2022-10-17T04:51:04.513Z,1011.6
2022-10-17T04:52:04.488Z,1011.6
2022-10-17T04:53:04.526Z,1011.6
2022-10-17T04:54:04.570Z,1011.6
2022-10-17T04:55:04.520Z,1011.6
2022-10-17T04:56:04.505Z,1011.6
2022-10-17T04:57:04.519Z,1011.5
2022-10-17T04:58:04.506Z,1011.6
2022-10-17T04:59:04.519Z,1011.5
2022-10-17T05:00:04.677Z,1011.5
2022-10-17T05:01:04.566Z,1011.5
2022-10-17T05:02:04.524Z,1011.5
2022-10-17T05:03:04.525Z,1011.6
2022-10-17T05:04:04.530Z,1011.6
2022-10-17T05:05:04.519Z,1011.6
2022-10-17T05:06:04.616Z,1011.6
2022-10-17T05:07:04.510Z,1011.7
2022-10-17T05:08:04.496Z,1011.7
2022-10-17T05:09:04.561Z,1011.7
2022-10-17T05:10:04.504Z,1011.7
2022-10-17T05:11:04.514Z,1011.7
2022-10-17T05:12:06.754Z,1011.7
2022-10-17T05:13:04.498Z,1011.7
2022-10-17T05:14:11.223Z,1011.7
2022-10-17T05:15:03.939Z,1011.8
2022-10-17T05:16:05.674Z,1011.8
2022-10-17T05:17:03.966Z,1011.8
2022-10-17T05:18:03.979Z,1011.8
2022-10-17T05:19:03.932Z,1011.8
2022-10-17T05:20:03.948Z,1011.8
2022-10-17T05:21:03.967Z,1011.8
2022-10-17T05:22:03.972Z,1011.8
2022-10-17T05:23:03.942Z,1011.8
2022-10-17T05:24:03.964Z,1011.9
2022-10-17T05:25:03.943Z,1011.9
2022-10-17T05:26:03.962Z,1011.8
2022-10-17T05:27:03.967Z,1011.9
2022-10-17T05:28:03.988Z,1011.9
2022-10-17T05:29:03.997Z,1011.8
2022-10-17T05:30:03.933Z,1011.8
2022-10-17T05:31:03.939Z,1011.8
2022-10-17T05:32:03.951Z,1011.8
2022-10-17T05:33:03.954Z,1011.8
2022-10-17T05:34:03.995Z,1011.9
2022-10-17T05:35:03.955Z,1011.9
2022-10-17T05:36:03.962Z,1011.9
2022-10-17T05:37:03.946Z,1012.0
2022-10-17T05:38:03.957Z,1011.9
2022-10-17T05:39:04.981Z,1011.9
2022-10-17T05:40:03.964Z,1012.0
2022-10-17T05:41:03.958Z,1011.9
2022-10-17T05:42:03.942Z,1011.9
2022-10-17T05:43:03.978Z,1011.9
2022-10-17T05:44:05.621Z,1011.8
2022-10-17T05:45:03.934Z,1011.8
2022-10-17T05:46:04.056Z,1012.0
2022-10-17T05:47:03.975Z,1011.9
2022-10-17T05:48:03.969Z,1011.8
2022-10-17T05:49:14.717Z,1011.9
2022-10-17T05:50:03.977Z,1012.0
2022-10-17T05:51:03.970Z,1011.9
2022-10-17T05:52:03.973Z,1011.9
2022-10-17T05:53:03.958Z,1011.9
2022-10-17T05:54:03.952Z,1012.0
2022-10-17T05:55:03.981Z,1012.0
2022-10-17T05:56:03.974Z,1012.0
2022-10-17T05:57:03.960Z,1012.0
2022-10-17T05:58:03.948Z,1012.0
2022-10-17T05:59:03.956Z,1012.0
2022-10-17T06:00:03.994Z,1012.0
2022-10-17T06:01:04.143Z,1012.0
2022-10-17T06:03:37.370Z,1012.0
2022-10-17T06:04:04.067Z,1012.0
2022-10-17T06:05:04.070Z,1011.9
2022-10-17T06:06:04.100Z,1011.9
2022-10-17T06:07:04.070Z,1011.9
2022-10-17T06:08:04.100Z,1012.0
2022-10-17T06:09:04.065Z,1012.0
2022-10-17T06:10:04.093Z,1012.0
2022-10-17T06:11:07.553Z,1011.9
2022-10-17T06:12:04.111Z,1012.0
2022-10-17T06:13:04.082Z,1012.0
2022-10-17T06:14:04.081Z,1012.0
2022-10-17T06:15:04.078Z,1012.0
2022-10-17T06:16:04.112Z,1012.1
2022-10-17T06:17:04.083Z,1012.1
2022-10-17T06:18:04.119Z,1012.0
2022-10-17T06:19:04.094Z,1012.1
2022-10-17T06:20:04.086Z,1012.1
2022-10-17T06:21:04.083Z,1012.0
2022-10-17T06:22:04.116Z,1012.1
2022-10-17T06:23:04.075Z,1012.1
2022-10-17T06:24:04.107Z,1012.1
2022-10-17T06:25:04.074Z,1012.2
2022-10-17T06:26:04.115Z,1012.2
2022-10-17T06:27:08.075Z,1012.2
2022-10-17T06:28:04.119Z,1012.2
2022-10-17T06:29:04.154Z,1012.1
2022-10-17T06:30:05.106Z,1012.2
2022-10-17T06:31:04.086Z,1012.2
2022-10-17T06:32:04.116Z,1012.2
2022-10-17T06:33:04.086Z,1012.2
2022-10-17T06:34:04.098Z,1012.2
2022-10-17T06:35:04.084Z,1012.2
2022-10-17T06:36:04.120Z,1012.2
2022-10-17T06:37:04.082Z,1012.3
2022-10-17T06:38:04.081Z,1012.3
2022-10-17T06:39:04.092Z,1012.3
2022-10-17T06:40:04.096Z,1012.4
2022-10-17T06:41:04.104Z,1012.3
2022-10-17T06:42:04.121Z,1012.3
2022-10-17T06:43:04.088Z,1012.4
2022-10-17T06:44:04.093Z,1012.4
2022-10-17T06:45:04.083Z,1012.4
2022-10-17T06:46:04.138Z,1012.3
2022-10-17T06:47:04.093Z,1012.4
2022-10-17T06:48:04.122Z,1012.5
2022-10-17T06:49:04.083Z,1012.5
2022-10-17T06:50:04.086Z,1012.5
2022-10-17T06:51:04.081Z,1012.5
2022-10-17T06:52:04.123Z,1012.5
2022-10-17T06:53:04.122Z,1012.5
2022-10-17T06:54:04.094Z,1012.5
2022-10-17T06:56:04.092Z,1012.6
2022-10-17T06:57:04.094Z,1012.5
2022-10-17T06:58:04.139Z,1012.6
2022-10-17T06:59:04.093Z,1012.6
2022-10-17T07:00:04.088Z,1012.5
2022-10-17T07:01:04.190Z,1012.6
2022-10-17T07:02:04.099Z,1012.6
2022-10-17T07:03:04.108Z,1012.7
2022-10-17T07:05:37.961Z,1012.7
2022-10-17T07:06:03.724Z,1012.7
2022-10-17T07:07:03.737Z,1012.7
2022-10-17T07:08:03.693Z,1012.7
2022-10-17T07:09:03.686Z,1012.7
2022-10-17T07:10:03.772Z,1012.6
2022-10-17T07:11:03.704Z,1012.6
2022-10-17T07:12:03.706Z,1012.7
2022-10-17T07:13:03.839Z,1012.6
2022-10-17T07:14:03.737Z,1012.6
2022-10-17T07:15:03.691Z,1012.6
2022-10-17T07:16:03.751Z,1012.6
2022-10-17T07:17:03.760Z,1012.6
2022-10-17T07:18:03.685Z,1012.6
2022-10-17T07:19:03.695Z,1012.7
2022-10-17T07:20:03.697Z,1012.6
2022-10-17T07:21:03.705Z,1012.7
2022-10-17T07:22:03.719Z,1012.7
2022-10-17T07:23:03.695Z,1012.7
2022-10-17T07:24:10.428Z,1012.8
2022-10-17T07:25:04.170Z,1012.7
2022-10-17T07:26:04.203Z,1012.7
2022-10-17T07:27:04.152Z,1012.6
2022-10-17T07:28:04.155Z,1012.7
2022-10-17T07:29:04.235Z,1012.7
2022-10-17T07:30:04.167Z,1012.7
2022-10-17T07:31:04.174Z,1012.6
2022-10-17T07:32:04.203Z,1012.7
2022-10-17T07:33:04.189Z,1012.7
2022-10-17T07:34:04.159Z,1012.7
2022-10-17T07:35:10.892Z,1012.8
2022-10-17T07:36:04.620Z,1012.8
2022-10-17T07:37:04.637Z,1012.8
2022-10-17T07:38:04.598Z,1012.8
2022-10-17T07:39:04.635Z,1012.8
2022-10-17T07:40:04.614Z,1012.8
2022-10-17T07:41:04.613Z,1012.8
2022-10-17T07:42:04.620Z,1012.9
2022-10-17T07:43:04.635Z,1012.9
2022-10-17T07:44:04.609Z,1012.9
2022-10-17T07:45:04.678Z,1012.9
2022-10-17T07:46:04.630Z,1012.9
2022-10-17T07:47:04.632Z,1012.9
2022-10-17T07:48:04.645Z,1012.9
2022-10-17T07:49:04.784Z,1012.9
2022-10-17T07:50:04.848Z,1012.9
2022-10-17T07:51:04.642Z,1012.9
2022-10-17T07:52:04.632Z,1012.9
2022-10-17T07:53:04.622Z,1012.9
2022-10-17T07:54:04.617Z,1013.0
2022-10-17T07:55:05.198Z,1013.0
2022-10-17T07:56:04.630Z,1013.0
2022-10-17T07:57:04.623Z,1013.0
2022-10-17T07:58:04.627Z,1013.0
2022-10-17T07:59:08.249Z,1013.1
2022-10-17T08:00:04.633Z,1013.1
2022-10-17T08:01:05.335Z,1013.1
2022-10-17T08:02:04.640Z,1013.1
2022-10-17T08:03:04.645Z,1013.1
2022-10-17T08:04:04.611Z,1013.1
2022-10-17T08:05:04.628Z,1013.1
2022-10-17T08:06:04.671Z,1013.1
2022-10-17T08:07:18.561Z,1013.1
2022-10-17T08:08:04.633Z,1013.1
2022-10-17T08:09:04.637Z,1013.1
2022-10-17T08:10:04.695Z,1013.1
2022-10-17T08:11:04.621Z,1013.1
2022-10-17T08:12:04.717Z,1013.1
2022-10-17T08:13:04.637Z,1013.1
2022-10-17T08:14:04.627Z,1013.0
2022-10-17T08:15:04.741Z,1013.1
2022-10-17T08:16:04.640Z,1013.0
2022-10-17T08:17:04.627Z,1013.0
2022-10-17T08:18:04.629Z,1013.0
2022-10-17T08:19:04.778Z,1013.0
2022-10-17T08:20:04.610Z,1013.0
2022-10-17T08:21:04.638Z,1013.0
2022-10-17T08:23:42.975Z,1013.0
2022-10-17T08:23:46.950Z,1013.0
2022-10-17T08:24:04.625Z,1013.0
2022-10-17T08:25:04.684Z,1013.1
2022-10-17T08:26:04.647Z,1013.0
2022-10-17T08:27:04.628Z,1013.0
2022-10-17T08:28:04.752Z,1013.0
2022-10-17T08:29:04.701Z,1013.0
2022-10-17T08:30:04.626Z,1013.0
2022-10-17T08:31:04.634Z,1013.0
2022-10-17T08:32:06.545Z,1013.0
2022-10-17T08:33:04.647Z,1013.0
2022-10-17T08:34:04.630Z,1013.0
2022-10-17T08:35:04.641Z,1013.0
2022-10-17T08:36:04.626Z,1013.0
2022-10-17T08:37:04.671Z,1013.0
2022-10-17T08:38:04.662Z,1013.0
2022-10-17T08:39:04.640Z,1013.0
2022-10-17T08:40:04.640Z,1013.1
2022-10-17T08:41:04.640Z,1013.1
2022-10-17T08:42:04.645Z,1013.1
2022-10-17T08:43:04.641Z,1013.1
2022-10-17T08:44:04.680Z,1013.1
2022-10-17T08:45:04.627Z,1013.1
2022-10-17T08:46:04.720Z,1013.1
2022-10-17T08:47:04.665Z,1013.0
2022-10-17T08:48:04.664Z,1013.0
2022-10-17T08:49:06.569Z,1013.0
2022-10-17T08:50:04.645Z,1013.1
2022-10-17T08:51:04.641Z,1013.1
2022-10-17T08:52:04.651Z,1013.1
2022-10-17T08:53:04.639Z,1013.1
2022-10-17T08:54:04.634Z,1013.1
2022-10-17T08:55:04.663Z,1013.1
2022-10-17T08:56:04.638Z,1013.1
2022-10-17T08:57:04.654Z,1013.1
2022-10-17T08:58:04.784Z,1013.0
2022-10-17T08:59:04.665Z,1013.0
2022-10-17T09:00:04.641Z,1013.0
2022-10-17T09:01:06.998Z,1013.0
2022-10-17T09:02:04.634Z,1013.1
2022-10-17T09:03:04.656Z,1013.0
2022-10-17T09:04:04.666Z,1013.0
2022-10-17T09:05:04.665Z,1013.0
2022-10-17T09:06:04.648Z,1013.0
2022-10-17T09:07:04.633Z,1013.1
2022-10-17T09:08:04.639Z,1013.0
2022-10-17T09:09:04.646Z,1013.1
2022-10-17T09:10:04.653Z,1013.0
2022-10-17T09:11:04.663Z,1013.0
2022-10-17T09:12:04.667Z,1013.0
2022-10-17T09:13:06.863Z,1013.1
2022-10-17T09:14:04.652Z,1013.1
2022-10-17T09:15:04.725Z,1013.0
2022-10-17T09:16:04.638Z,1013.1
2022-10-17T09:17:04.648Z,1013.1
2022-10-17T09:18:04.722Z,1013.1
2022-10-17T09:19:04.678Z,1013.1
2022-10-17T09:20:04.647Z,1013.1
2022-10-17T09:21:04.645Z,1013.2
2022-10-17T09:24:09.631Z,1013.1
2022-10-17T09:25:04.675Z,1013.1
2022-10-17T09:26:04.441Z,1013.2
2022-10-17T09:27:05.283Z,1013.3
2022-10-17T09:28:04.453Z,1013.3
2022-10-17T09:29:04.533Z,1013.2
2022-10-17T09:30:04.684Z,1013.2
2022-10-17T09:31:04.405Z,1013.2
2022-10-17T09:32:04.417Z,1013.2
2022-10-17T09:33:04.400Z,1013.2
2022-10-17T09:34:04.408Z,1013.1
2022-10-17T09:35:04.457Z,1013.2
2022-10-17T09:36:04.427Z,1013.2
2022-10-17T09:37:04.411Z,1013.2
2022-10-17T09:38:04.422Z,1013.2
2022-10-17T09:39:05.831Z,1013.1
2022-10-17T09:40:04.445Z,1013.1
2022-10-17T09:41:15.747Z,1013.1
2022-10-17T09:42:04.403Z,1013.1
2022-10-17T09:43:04.400Z,1013.2
2022-10-17T09:44:04.408Z,1013.1
2022-10-17T09:45:04.459Z,1013.1
2022-10-17T09:46:04.462Z,1013.2
2022-10-17T09:47:04.426Z,1013.1
2022-10-17T09:48:04.419Z,1013.1
2022-10-17T09:49:04.423Z,1013.1
2022-10-17T09:50:04.418Z,1013.1
2022-10-17T09:51:15.145Z,1013.1
2022-10-17T09:52:04.483Z,1013.1
2022-10-17T09:53:04.424Z,1013.1
2022-10-17T09:54:04.425Z,1013.1
2022-10-17T09:55:04.406Z,1013.1
2022-10-17T09:56:04.438Z,1013.1
2022-10-17T09:57:04.420Z,1013.3
2022-10-17T09:58:04.461Z,1013.3
2022-10-17T09:59:04.408Z,1013.4
2022-10-17T10:00:04.523Z,1013.3
2022-10-17T10:01:04.443Z,1013.3
2022-10-17T10:02:04.413Z,1013.3
2022-10-17T10:03:04.425Z,1013.3
2022-10-17T10:04:04.460Z,1013.3
2022-10-17T10:05:05.974Z,1013.3
2022-10-17T10:06:04.469Z,1013.3
2022-10-17T10:07:04.417Z,1013.4
2022-10-17T10:08:04.429Z,1013.4
2022-10-17T10:09:04.431Z,1013.4
2022-10-17T10:10:04.447Z,1013.5
2022-10-17T10:11:04.442Z,1013.5
2022-10-17T10:12:04.446Z,1013.6
2022-10-17T10:13:04.439Z,1013.5
2022-10-17T10:14:04.427Z,1013.6
2022-10-17T10:15:04.423Z,1013.5
2022-10-17T10:17:56.636Z,1013.5
2022-10-17T10:18:04.821Z,1013.5
2022-10-17T10:19:07.072Z,1013.5
2022-10-17T10:20:04.332Z,1013.5
2022-10-17T10:21:04.298Z,1013.5
2022-10-17T10:22:04.307Z,1013.5
2022-10-17T10:23:04.324Z,1013.5
2022-10-17T10:24:04.327Z,1013.5
2022-10-17T10:25:04.297Z,1013.5
2022-10-17T10:26:04.323Z,1013.5
2022-10-17T10:27:04.361Z,1013.5
2022-10-17T10:28:04.302Z,1013.5
2022-10-17T10:29:04.440Z,1013.5
2022-10-17T10:30:04.297Z,1013.5
2022-10-17T10:31:04.302Z,1013.5
2022-10-17T10:32:04.340Z,1013.5
2022-10-17T10:33:04.291Z,1013.4
2022-10-17T10:34:04.303Z,1013.4
2022-10-17T10:35:04.329Z,1013.4
2022-10-17T10:36:04.374Z,1013.4
2022-10-17T10:37:04.304Z,1013.4
2022-10-17T10:38:04.310Z,1013.4
2022-10-17T10:39:04.799Z,1013.4
2022-10-17T10:40:04.320Z,1013.4
2022-10-17T10:41:04.319Z,1013.4
2022-10-17T10:42:04.391Z,1013.4
2022-10-17T10:43:05.605Z,1013.4
2022-10-17T10:44:04.317Z,1013.3
2022-10-17T10:45:04.309Z,1013.4
2022-10-17T10:46:04.318Z,1013.4
2022-10-17T10:47:04.312Z,1013.4
2022-10-17T10:48:04.339Z,1013.4
2022-10-17T10:49:04.292Z,1013.4
2022-10-17T10:50:04.314Z,1013.4
2022-10-17T10:51:04.331Z,1013.4
2022-10-17T10:52:04.312Z,1013.4
2022-10-17T10:53:04.321Z,1013.4
2022-10-17T10:54:04.340Z,1013.4
2022-10-17T10:55:04.321Z,1013.5
2022-10-17T10:56:04.333Z,1013.5
2022-10-17T10:57:04.307Z,1013.5
2022-10-17T10:58:04.322Z,1013.5
2022-10-17T10:59:04.311Z,1013.5
2022-10-17T11:00:04.366Z,1013.5
2022-10-17T11:01:04.399Z,1013.5
2022-10-17T11:02:04.333Z,1013.5
2022-10-17T11:03:04.332Z,1013.5
2022-10-17T11:04:04.323Z,1013.5
2022-10-17T11:06:54.570Z,1013.6
2022-10-17T11:07:04.527Z,1013.6
2022-10-17T11:08:04.269Z,1013.5
2022-10-17T11:09:04.288Z,1013.5
2022-10-17T11:10:04.294Z,1013.5
2022-10-17T11:11:04.267Z,1013.5
2022-10-17T11:12:04.307Z,1013.5
2022-10-17T11:13:04.261Z,1013.5
2022-10-17T11:14:04.274Z,1013.5
2022-10-17T11:15:04.264Z,1013.5
2022-10-17T11:16:04.275Z,1013.5
2022-10-17T11:17:04.275Z,1013.5
2022-10-17T11:18:04.354Z,1013.5
2022-10-17T11:19:04.285Z,1013.5
2022-10-17T11:20:04.264Z,1013.5
2022-10-17T11:21:04.268Z,1013.5
2022-10-17T11:22:04.290Z,1013.5
2022-10-17T11:23:04.281Z,1013.5
2022-10-17T11:24:06.925Z,1013.6
2022-10-17T11:25:04.292Z,1013.6
2022-10-17T11:26:04.285Z,1013.6
2022-10-17T11:27:04.281Z,1013.6
2022-10-17T11:28:05.285Z,1013.6
2022-10-17T11:29:04.335Z,1013.6
2022-10-17T11:30:04.309Z,1013.6
2022-10-17T11:31:06.982Z,1013.6
2022-10-17T11:32:04.310Z,1013.6
2022-10-17T11:33:04.295Z,1013.6
2022-10-17T11:34:04.264Z,1013.6
2022-10-17T11:35:04.267Z,1013.6
2022-10-17T11:36:04.379Z,1013.6
2022-10-17T11:37:04.274Z,1013.6
2022-10-17T11:38:04.296Z,1013.6
2022-10-17T11:39:04.288Z,1013.6
2022-10-17T11:40:04.280Z,1013.6
2022-10-17T11:41:04.269Z,1013.6
2022-10-17T11:42:04.402Z,1013.6
2022-10-17T11:43:04.274Z,1013.6
2022-10-17T11:44:04.304Z,1013.6
2022-10-17T11:45:04.283Z,1013.6
2022-10-17T11:46:04.619Z,1013.6
2022-10-17T11:47:04.286Z,1013.7
2022-10-17T11:48:04.330Z,1013.6
2022-10-17T11:49:04.319Z,1013.6
2022-10-17T11:52:04.306Z,1013.6
2022-10-17T11:53:04.460Z,1013.6
2022-10-17T11:54:04.324Z,1013.6
2022-10-17T11:55:04.286Z,1013.6
2022-10-17T11:56:04.267Z,1013.6
2022-10-17T11:57:04.276Z,1013.6
2022-10-17T11:58:04.282Z,1013.6
2022-10-17T11:59:04.286Z,1013.6
2022-10-17T12:00:04.313Z,1013.6
2022-10-17T12:01:04.297Z,1013.6
2022-10-17T12:02:04.277Z,1013.7
2022-10-17T12:03:04.286Z,1013.6
2022-10-17T12:04:04.375Z,1013.6
2022-10-17T12:07:08.494Z,1013.7
2022-10-17T12:08:05.275Z,1013.7
2022-10-17T12:09:05.135Z,1013.7
2022-10-17T12:10:04.251Z,1013.7
2022-10-17T12:11:03.938Z,1013.6
2022-10-17T12:12:03.986Z,1013.7
2022-10-17T12:13:04.443Z,1013.6
2022-10-17T12:14:06.083Z,1013.7
2022-10-17T12:15:03.917Z,1013.7
2022-10-17T12:16:03.861Z,1013.7
2022-10-17T12:17:03.874Z,1013.7
2022-10-17T12:18:03.911Z,1013.7
2022-10-17T12:19:03.923Z,1013.6
2022-10-17T12:20:04.256Z,1013.6
2022-10-17T12:21:03.868Z,1013.6
2022-10-17T12:22:03.899Z,1013.6
2022-10-17T12:23:03.852Z,1013.6
2022-10-17T12:24:04.195Z,1013.6
2022-10-17T12:25:03.877Z,1013.6
2022-10-17T12:26:04.985Z,1013.5
2022-10-17T12:27:03.856Z,1013.6
2022-10-17T12:28:03.858Z,1013.5
2022-10-17T12:29:03.912Z,1013.5
2022-10-17T12:30:03.846Z,1013.5
2022-10-17T12:31:03.861Z,1013.5
2022-10-17T12:32:03.912Z,1013.5
2022-10-17T12:33:06.490Z,1013.5
2022-10-17T12:34:03.862Z,1013.5
2022-10-17T12:35:03.882Z,1013.6
2022-10-17T12:36:03.981Z,1013.6
2022-10-17T12:37:04.890Z,1013.6
2022-10-17T12:38:03.855Z,1013.6
2022-10-17T12:39:03.865Z,1013.6
2022-10-17T12:40:04.082Z,1013.6
2022-10-17T12:41:03.854Z,1013.6
2022-10-17T12:42:03.887Z,1013.7